createdAt,value
2018-07-12T00:02:04.236Z,101787.48
2018-07-12T00:04:31.288Z,101788.25
2018-07-12T00:06:58.439Z,101789.70
2018-07-12T00:09:25.501Z,101792.07
2018-07-12T00:11:52.592Z,101784.30
2018-07-12T00:14:19.636Z,101777.55
2018-07-12T00:16:47.031Z,101783.45
2018-07-12T00:19:14.433Z,101780.58
2018-07-12T00:21:41.537Z,101774.06
2018-07-12T00:24:09.047Z,101773.80
2018-07-12T00:26:36.151Z,101771.11
2018-07-12T00:29:03.195Z,101767.93
2018-07-12T00:31:30.332Z,101772.86
2018-07-12T00:33:57.389Z,101773.30
2018-07-12T00:36:24.906Z,101771.25
2018-07-12T00:38:51.935Z,101770.84
2018-07-12T00:41:19.064Z,101765.85
2018-07-12T00:43:46.155Z,101765.19
2018-07-12T00:46:13.206Z,101768.16
2018-07-12T00:48:52.099Z,101763.30
2018-07-12T00:51:43.915Z,101762.44
2018-07-12T00:54:11.025Z,101760.26
2018-07-12T00:56:38.128Z,101766.36
2018-07-12T00:59:05.167Z,101766.86
2018-07-12T01:01:32.677Z,101770.31
2018-07-12T01:03:59.755Z,101771.12
2018-07-12T01:06:26.872Z,101768.23
2018-07-12T01:08:54.118Z,101768.00
2018-07-12T01:11:21.173Z,101763.44
2018-07-12T01:13:48.205Z,101768.16
2018-07-12T01:16:15.251Z,101766.63
2018-07-12T01:18:42.846Z,101766.49
2018-07-12T01:21:09.919Z,101768.30
2018-07-12T01:23:37.023Z,101766.70
2018-07-12T01:26:04.442Z,101768.44
2018-07-12T01:28:32.099Z,101768.73
2018-07-12T01:30:59.272Z,101769.23
2018-07-12T01:33:26.361Z,101767.87
2018-07-12T01:35:53.402Z,101771.63
2018-07-12T01:38:20.481Z,101770.55
2018-07-12T01:40:47.543Z,101769.03
2018-07-12T01:43:14.872Z,101771.11
2018-07-12T01:45:48.438Z,101764.05
2018-07-12T01:48:15.525Z,101769.33
2018-07-12T01:50:42.608Z,101757.80
2018-07-12T01:53:10.152Z,101762.20
2018-07-12T01:55:37.262Z,101760.69
2018-07-12T01:58:04.309Z,101762.37
2018-07-12T02:00:31.456Z,101759.75
2018-07-12T02:02:58.528Z,101754.12
2018-07-12T02:05:25.650Z,101762.14
2018-07-12T02:07:53.234Z,101752.81
2018-07-12T02:13:18.979Z,101747.62
2018-07-12T02:15:45.960Z,101755.36
2018-07-12T02:18:13.075Z,101752.55
2018-07-12T02:20:40.140Z,101751.08
2018-07-12T02:23:07.233Z,101750.30
2018-07-12T02:28:24.903Z,101758.55
2018-07-12T02:30:51.944Z,101757.67
2018-07-12T02:33:18.992Z,101756.58
2018-07-12T02:35:46.086Z,101759.05
2018-07-12T02:38:13.124Z,101760.62
2018-07-12T02:40:40.656Z,101753.97
2018-07-12T02:43:07.745Z,101757.72
2018-07-12T02:45:40.911Z,101754.84
2018-07-12T02:48:08.004Z,101773.06
2018-07-12T02:50:35.095Z,101760.94
2018-07-12T02:53:02.476Z,101761.52
2018-07-12T02:55:29.517Z,101760.42
2018-07-12T02:57:56.565Z,101762.80
2018-07-12T03:00:23.690Z,101758.11
2018-07-12T03:02:50.719Z,101763.81
2018-07-12T03:05:17.939Z,101762.44
2018-07-12T03:07:44.964Z,101762.00
2018-07-12T03:10:12.003Z,101759.68
2018-07-12T03:12:39.068Z,101756.39
2018-07-12T03:15:06.105Z,101756.13
2018-07-12T03:17:33.184Z,101754.05
2018-07-12T03:20:00.421Z,101751.33
2018-07-12T03:22:27.768Z,101753.52
2018-07-12T03:24:54.860Z,101750.83
2018-07-12T03:27:21.948Z,101752.45
2018-07-12T03:29:49.028Z,101752.50
2018-07-12T03:32:16.117Z,101745.50
2018-07-12T03:34:43.154Z,101743.83
2018-07-12T03:37:10.224Z,101740.95
2018-07-12T03:39:37.250Z,101742.55
2018-07-12T03:42:04.357Z,101742.31
2018-07-12T03:44:31.442Z,101749.06
2018-07-12T03:46:58.482Z,101740.68
2018-07-12T03:49:25.551Z,101750.33
2018-07-12T03:51:52.581Z,101744.96
2018-07-12T03:54:20.145Z,101749.63
2018-07-12T03:56:47.174Z,101747.88
2018-07-12T03:59:14.252Z,101755.26
2018-07-12T04:01:41.711Z,101753.31
2018-07-12T04:04:08.739Z,101755.31
2018-07-12T04:06:36.271Z,101753.94
2018-07-12T04:09:04.461Z,101759.68
2018-07-12T04:11:31.494Z,101765.64
2018-07-12T04:13:58.705Z,101758.33
2018-07-12T04:16:25.735Z,101759.52
2018-07-12T04:18:53.307Z,101765.52
2018-07-12T04:21:20.645Z,101767.47
2018-07-12T04:23:47.676Z,101759.70
2018-07-12T04:26:14.746Z,101766.27
2018-07-12T04:28:48.328Z,101771.14
2018-07-12T04:31:15.467Z,101768.02
2018-07-12T04:33:42.510Z,101770.27
2018-07-12T04:36:09.541Z,101765.64
2018-07-12T04:38:36.609Z,101769.39
2018-07-12T04:41:03.640Z,101764.03
2018-07-12T04:43:30.766Z,101765.70
2018-07-12T04:45:57.857Z,101769.77
2018-07-12T04:48:24.928Z,101771.75
2018-07-12T04:50:52.013Z,101775.76
2018-07-12T04:53:19.054Z,101770.38
2018-07-12T04:55:46.184Z,101778.02
2018-07-12T04:58:13.322Z,101772.20
2018-07-12T05:00:40.427Z,101771.06
2018-07-12T05:03:07.474Z,101771.78
2018-07-12T05:05:34.555Z,101774.36
2018-07-12T05:08:02.054Z,101770.14
2018-07-12T05:10:29.127Z,101770.52
2018-07-12T05:12:56.165Z,101771.29
2018-07-12T05:15:23.244Z,101777.89
2018-07-12T05:17:50.300Z,101776.63
2018-07-12T05:20:17.442Z,101778.63
2018-07-12T05:22:45.093Z,101780.00
2018-07-12T05:25:12.149Z,101790.80
2018-07-12T05:27:39.232Z,101788.42
2018-07-12T05:30:06.260Z,101795.46
2018-07-12T05:32:33.354Z,101800.97
2018-07-12T05:35:00.540Z,101800.88
2018-07-12T05:37:29.458Z,101797.03
2018-07-12T05:39:58.185Z,101797.70
2018-07-12T05:42:31.515Z,101793.66
2018-07-12T05:45:00.444Z,101796.52
2018-07-12T05:47:29.509Z,101794.69
2018-07-12T05:49:58.420Z,101796.27
2018-07-12T05:52:27.150Z,101793.59
2018-07-12T05:54:56.082Z,101795.59
2018-07-12T05:57:25.052Z,101795.64
2018-07-12T05:59:59.705Z,101799.63
2018-07-12T06:02:28.976Z,101800.05
2018-07-12T06:04:57.853Z,101800.34
2018-07-12T06:07:30.828Z,101794.47
2018-07-12T06:09:59.931Z,101803.75
2018-07-12T06:12:28.877Z,101797.98
2018-07-12T06:14:57.667Z,101801.71
2018-07-12T06:17:26.611Z,101805.19
2018-07-12T06:19:55.490Z,101811.79
2018-07-12T06:22:24.408Z,101807.84
2018-07-12T06:24:53.488Z,101811.81
2018-07-12T06:27:22.388Z,101812.02
2018-07-12T06:29:51.360Z,101810.73
2018-07-12T06:32:20.575Z,101807.20
2018-07-12T06:34:49.520Z,101807.47
2018-07-12T06:37:18.512Z,101810.48
2018-07-12T06:39:47.315Z,101815.39
2018-07-12T06:42:16.273Z,101822.23
2018-07-12T06:44:45.617Z,101820.30
2018-07-12T06:47:14.347Z,101830.30
2018-07-12T06:49:43.249Z,101827.48
2018-07-12T06:52:12.215Z,101835.27
2018-07-12T06:54:41.106Z,101827.69
2018-07-12T06:57:09.869Z,101831.50
2018-07-12T06:59:38.788Z,101834.07
2018-07-12T07:02:07.852Z,101833.67
2018-07-12T07:04:36.728Z,101828.91
2018-07-12T07:07:05.852Z,101829.90
2018-07-12T07:09:34.761Z,101837.45
2018-07-12T07:12:03.701Z,101837.22
2018-07-12T07:14:32.656Z,101833.30
2018-07-12T07:17:01.564Z,101836.52
2018-07-12T07:19:30.553Z,101835.06
2018-07-12T07:21:59.459Z,101843.55
2018-07-12T07:24:28.462Z,101843.54
2018-07-12T07:26:57.413Z,101831.19
2018-07-12T07:29:26.127Z,101836.64
2018-07-12T07:31:55.089Z,101826.90
2018-07-12T07:34:23.981Z,101837.81
2018-07-12T07:36:52.721Z,101832.48
2018-07-12T07:39:21.751Z,101833.66
2018-07-12T07:41:50.625Z,101832.63
2018-07-12T07:44:19.555Z,101835.27
2018-07-12T07:46:48.466Z,101832.30
2018-07-12T07:49:17.464Z,101827.51
2018-07-12T07:51:46.180Z,101823.16
2018-07-12T07:54:15.379Z,101817.33
2018-07-12T07:56:44.186Z,101816.49
2018-07-12T07:59:13.052Z,101814.96
2018-07-12T08:01:41.979Z,101819.44
2018-07-12T08:04:10.848Z,101812.14
2018-07-12T08:06:39.782Z,101817.41
2018-07-12T08:09:08.787Z,101814.52
2018-07-12T08:11:37.521Z,101810.70
2018-07-12T08:14:06.460Z,101813.49
2018-07-12T08:16:35.176Z,101816.48
2018-07-12T08:19:04.165Z,101813.01
2018-07-12T08:21:33.121Z,101811.88
2018-07-12T08:24:02.037Z,101812.08
2018-07-12T08:26:30.915Z,101821.61
2018-07-12T08:28:59.706Z,101817.16
2018-07-12T08:31:28.606Z,101824.52
2018-07-12T08:33:57.550Z,101819.61
2018-07-12T08:36:26.502Z,101820.09
2018-07-12T08:38:55.275Z,101825.19
2018-07-12T08:41:24.195Z,101820.86
2018-07-12T08:43:53.140Z,101820.39
2018-07-12T08:46:22.148Z,101821.84
2018-07-12T08:48:51.072Z,101820.14
2018-07-12T08:51:19.987Z,101818.34
2018-07-12T08:53:48.917Z,101819.24
2018-07-12T08:56:17.793Z,101816.34
2018-07-12T08:58:46.829Z,101816.31
2018-07-12T09:01:15.530Z,101816.07
2018-07-12T09:03:44.227Z,101824.72
2018-07-12T09:06:13.165Z,101821.78
2018-07-12T09:08:42.185Z,101821.38
2018-07-12T09:11:11.589Z,101823.71
2018-07-12T09:13:40.645Z,101815.07
2018-07-12T09:16:09.634Z,101816.77
2018-07-12T09:18:38.568Z,101825.12
2018-07-12T09:21:07.472Z,101819.98
2018-07-12T09:23:36.560Z,101820.14
2018-07-12T09:26:05.496Z,101828.14
2018-07-12T09:28:34.384Z,101822.14
2018-07-12T09:31:03.316Z,101828.91
2018-07-12T09:33:32.187Z,101825.30
2018-07-12T09:36:01.002Z,101815.59
2018-07-12T09:38:50.499Z,101830.94
2018-07-12T09:41:20.131Z,101825.65
2018-07-12T09:43:49.603Z,101819.87
2018-07-12T09:46:18.701Z,101824.70
2018-07-12T09:48:48.950Z,101835.37
2018-07-12T09:51:17.783Z,101889.75
2018-07-12T09:53:47.383Z,101826.41
2018-07-12T09:56:16.307Z,101838.73
2018-07-12T09:58:45.319Z,101842.09
2018-07-12T10:01:20.230Z,101836.02
2018-07-12T10:03:51.251Z,101834.57
2018-07-12T10:06:25.558Z,101836.41
2018-07-12T10:08:55.981Z,101843.59
2018-07-12T10:11:30.194Z,101842.36
2018-07-12T10:14:04.643Z,101842.09
2018-07-12T10:16:38.902Z,101830.53
2018-07-12T10:19:07.715Z,101830.23
2018-07-12T10:21:36.536Z,101831.79
2018-07-12T10:24:05.370Z,101833.59
2018-07-12T10:26:34.231Z,101834.86
2018-07-12T10:29:03.024Z,101828.39
2018-07-12T10:31:31.670Z,101829.67
2018-07-12T10:34:00.500Z,101826.70
2018-07-12T10:36:29.273Z,101825.81
2018-07-12T10:38:58.395Z,101824.09
2018-07-12T10:41:27.178Z,101829.84
2018-07-12T10:43:55.885Z,101823.73
2018-07-12T10:46:24.703Z,101833.54
2018-07-12T10:48:53.492Z,101829.06
2018-07-12T10:51:22.139Z,101819.91
2018-07-12T10:53:50.886Z,101823.84
2018-07-12T10:56:19.738Z,101822.14
2018-07-12T10:58:48.701Z,101822.77
2018-07-12T11:01:17.440Z,101824.23
2018-07-12T11:03:46.297Z,101831.32
2018-07-12T11:06:15.075Z,101833.39
2018-07-12T11:08:43.717Z,101835.38
2018-07-12T11:11:12.663Z,101832.53
2018-07-12T11:13:49.357Z,101830.66
2018-07-12T11:16:18.191Z,101832.41
2018-07-12T11:18:47.388Z,101829.52
2018-07-12T11:21:16.238Z,101826.73
2018-07-12T11:23:45.217Z,101822.82
2018-07-12T11:26:13.994Z,101823.02
2018-07-12T11:28:43.155Z,101822.17
2018-07-12T11:31:12.024Z,101828.27
2018-07-12T11:33:42.732Z,101824.24
2018-07-12T11:36:11.930Z,101829.03
2018-07-12T11:38:42.056Z,101822.56
2018-07-12T11:41:11.221Z,101821.09
2018-07-12T11:43:40.085Z,101822.86
2018-07-12T11:46:09.954Z,101812.55
2018-07-12T11:48:39.936Z,101809.55
2018-07-12T11:51:08.829Z,101811.39
2018-07-12T11:53:37.702Z,101813.16
2018-07-12T11:56:06.650Z,101814.95
2018-07-12T11:58:35.463Z,101811.42
2018-07-12T12:01:04.347Z,101815.77
2018-07-12T12:03:33.241Z,101810.19
2018-07-12T12:06:02.071Z,101814.04
2018-07-12T12:08:30.990Z,101798.20
2018-07-12T12:10:59.806Z,101803.38
2018-07-12T12:13:28.626Z,101803.12
2018-07-12T12:15:57.431Z,101802.05
2018-07-12T12:18:26.244Z,101809.22
2018-07-12T12:20:55.070Z,101807.29
2018-07-12T12:23:23.894Z,101811.95
2018-07-12T12:25:52.717Z,101812.44
2018-07-12T12:28:21.825Z,101806.70
2018-07-12T12:30:50.597Z,101813.44
2018-07-12T12:33:19.455Z,101807.22
2018-07-12T12:35:48.257Z,101802.50
2018-07-12T12:38:17.080Z,101812.47
2018-07-12T12:40:45.886Z,101801.02
2018-07-12T12:43:14.648Z,101802.39
2018-07-12T12:45:49.508Z,101807.79
2018-07-12T12:48:18.303Z,101805.98
2018-07-12T12:50:47.543Z,101810.45
2018-07-12T12:53:16.287Z,101797.11
2018-07-12T12:55:45.136Z,101804.85
2018-07-12T12:58:13.952Z,101795.59
2018-07-12T13:00:42.755Z,101791.67
2018-07-12T13:03:11.555Z,101790.95
2018-07-12T13:05:40.343Z,101789.48
2018-07-12T13:08:09.276Z,101787.41
2018-07-12T13:10:38.016Z,101785.05
2018-07-12T13:13:06.980Z,101784.67
2018-07-12T13:15:35.824Z,101785.47
2018-07-12T13:18:04.670Z,101777.77
2018-07-12T13:20:33.540Z,101786.23
2018-07-12T13:23:02.363Z,101786.48
2018-07-12T13:25:31.199Z,101786.06
2018-07-12T13:28:00.040Z,101782.64
2018-07-12T13:30:28.848Z,101785.60
2018-07-12T13:32:58.219Z,101781.85
2018-07-12T13:35:27.005Z,101786.05
2018-07-12T13:37:55.765Z,101791.94
2018-07-12T13:40:24.416Z,101782.60
2018-07-12T13:42:53.335Z,101779.14
2018-07-12T13:45:28.856Z,101771.50
2018-07-12T13:47:57.656Z,101787.64
2018-07-12T13:50:26.463Z,101794.73
2018-07-12T13:52:55.295Z,101788.96
2018-07-12T13:55:24.152Z,101789.91
2018-07-12T13:57:53.013Z,101787.77
2018-07-12T14:00:21.844Z,101802.44
2018-07-12T14:02:50.913Z,101799.24
2018-07-12T14:05:19.956Z,101793.64
2018-07-12T14:07:48.758Z,101786.22
2018-07-12T14:10:17.641Z,101788.41
2018-07-12T14:12:46.658Z,101795.19
2018-07-12T14:15:15.462Z,101789.69
2018-07-12T14:17:44.255Z,101789.66
2018-07-12T14:20:13.406Z,101781.17
2018-07-12T14:22:42.243Z,101793.24
2018-07-12T14:25:11.034Z,101792.42
2018-07-12T14:27:39.812Z,101789.81
2018-07-12T14:30:08.631Z,101786.53
2018-07-12T14:32:37.452Z,101786.61
2018-07-12T14:35:06.404Z,101796.78
2018-07-12T14:37:35.211Z,101793.34
2018-07-12T14:40:04.015Z,101800.12
2018-07-12T14:42:32.672Z,101797.05
2018-07-12T14:45:01.559Z,101797.76
2018-07-12T14:47:30.384Z,101788.63
2018-07-12T14:49:59.040Z,101804.09
2018-07-12T14:52:27.801Z,101794.44
2018-07-12T14:54:56.567Z,101797.65
2018-07-12T14:57:25.288Z,101793.35
2018-07-12T14:59:54.056Z,101801.12
2018-07-12T15:02:22.895Z,101807.38
2018-07-12T15:04:51.691Z,101796.45
2018-07-12T15:07:20.455Z,101802.22
2018-07-12T15:09:49.319Z,101800.15
2018-07-12T15:12:18.670Z,101793.50
2018-07-12T15:14:47.508Z,101798.38
2018-07-12T15:17:16.400Z,101798.50
2018-07-12T15:19:45.180Z,101795.13
2018-07-12T15:22:14.124Z,101799.39
2018-07-12T15:24:43.004Z,101796.55
2018-07-12T15:27:11.817Z,101804.68
2018-07-12T15:29:40.620Z,101807.86
2018-07-12T15:32:09.829Z,101808.89
2018-07-12T15:34:38.627Z,101809.56
2018-07-12T15:37:07.501Z,101812.55
2018-07-12T15:39:36.243Z,101813.67
2018-07-12T15:42:05.100Z,101814.02
2018-07-12T15:44:33.690Z,101811.84
2018-07-12T15:47:02.538Z,101813.14
2018-07-12T15:49:31.389Z,101815.08
2018-07-12T15:52:00.163Z,101809.77
2018-07-12T15:54:28.941Z,101809.45
2018-07-12T15:56:57.772Z,101810.42
2018-07-12T15:59:26.578Z,101813.22
2018-07-12T16:01:55.444Z,101819.63
2018-07-12T16:04:24.010Z,101814.84
2018-07-12T16:06:53.300Z,101825.12
2018-07-12T16:09:21.927Z,101820.37
2018-07-12T16:11:50.723Z,101813.02
2018-07-12T16:14:19.527Z,101824.50
2018-07-12T16:16:48.342Z,101813.59
2018-07-12T16:19:17.099Z,101826.83
2018-07-12T16:21:46.191Z,101815.59
2018-07-12T16:24:15.052Z,101816.81
2018-07-12T16:26:43.884Z,101824.59
2018-07-12T16:29:13.896Z,101829.87
2018-07-12T16:31:42.785Z,101825.17
2018-07-12T16:34:11.580Z,101840.72
2018-07-12T16:36:40.474Z,101838.03
2018-07-12T16:39:09.314Z,101844.84
2018-07-12T16:41:38.112Z,101846.16
2018-07-12T16:44:06.974Z,101842.98
2018-07-12T16:46:35.962Z,101841.73
2018-07-12T16:49:04.871Z,101847.00
2018-07-12T16:51:33.640Z,101844.53
2018-07-12T16:54:02.472Z,101852.77
2018-07-12T16:56:31.286Z,101857.33
2018-07-12T16:59:00.132Z,101859.33
2018-07-12T17:01:28.994Z,101858.30
2018-07-12T17:03:57.787Z,101857.51
2018-07-12T17:06:26.637Z,101856.92
2018-07-12T17:08:55.432Z,101860.85
2018-07-12T17:11:24.263Z,101857.79
2018-07-12T17:13:53.192Z,101858.11
2018-07-12T17:16:22.285Z,101858.55
2018-07-12T17:18:51.060Z,101860.09
2018-07-12T17:21:19.915Z,101861.58
2018-07-12T17:23:48.798Z,101869.15
2018-07-12T17:26:17.683Z,101865.77
2018-07-12T17:28:46.424Z,101869.26
2018-07-12T17:31:15.126Z,101863.20
2018-07-12T17:33:43.958Z,101858.17
2018-07-12T17:36:12.752Z,101866.72
2018-07-12T17:38:41.906Z,101866.75
2018-07-12T17:41:10.801Z,101867.08
2018-07-12T17:43:39.524Z,101871.39
2018-07-12T17:46:08.390Z,101870.71
2018-07-12T17:48:37.180Z,101875.69
2018-07-12T17:51:06.167Z,101867.41
2018-07-12T17:53:34.960Z,101871.50
2018-07-12T17:56:03.777Z,101870.37
2018-07-12T17:58:32.602Z,101875.06
2018-07-12T18:01:01.464Z,101880.11
2018-07-12T18:03:30.376Z,101872.78
2018-07-12T18:05:59.194Z,101884.73
2018-07-12T18:08:27.979Z,101875.66
2018-07-12T18:10:56.638Z,101879.87
2018-07-12T18:13:25.456Z,101874.73
2018-07-12T18:15:54.406Z,101880.50
2018-07-12T18:18:23.140Z,101883.78
2018-07-12T18:20:51.754Z,101887.47
2018-07-12T18:23:20.621Z,101883.09
2018-07-12T18:25:49.216Z,101888.69
2018-07-12T18:28:18.129Z,101889.53
2018-07-12T18:30:47.001Z,101887.73
2018-07-12T18:33:15.936Z,101893.52
2018-07-12T18:35:45.146Z,101882.71
2018-07-12T18:38:13.955Z,101894.69
2018-07-12T18:40:42.771Z,101892.33
2018-07-12T18:43:11.604Z,101903.39
2018-07-12T18:45:46.348Z,101906.24
2018-07-12T18:48:15.161Z,101909.44
2018-07-12T18:50:44.078Z,101913.59
2018-07-12T18:53:12.877Z,101913.84
2018-07-12T18:55:41.732Z,101919.77
2018-07-12T18:58:10.521Z,101926.95
2018-07-12T19:00:39.432Z,101936.23
2018-07-12T19:03:08.284Z,101933.99
2018-07-12T19:05:37.090Z,101937.33
2018-07-12T19:08:05.969Z,101930.94
2018-07-12T19:10:35.899Z,101930.68
2018-07-12T19:13:04.934Z,101936.16
2018-07-12T19:15:33.786Z,101942.81
2018-07-12T19:18:02.643Z,101944.48
2018-07-12T19:20:31.444Z,101945.52
2018-07-12T19:23:00.354Z,101943.44
2018-07-12T19:25:29.190Z,101947.61
2018-07-12T19:27:58.023Z,101952.34
2018-07-12T19:30:26.883Z,101953.13
2018-07-12T19:32:55.690Z,101958.78
2018-07-12T19:35:24.732Z,101963.66
2018-07-12T19:37:53.390Z,101962.03
2018-07-12T19:40:22.356Z,101964.38
2018-07-12T19:42:51.259Z,101967.09
2018-07-12T19:45:26.100Z,101970.44
2018-07-12T19:47:54.927Z,101966.03
2018-07-12T19:50:23.841Z,101969.47
2018-07-12T19:52:52.705Z,101971.08
2018-07-12T19:55:21.393Z,101971.44
2018-07-12T19:57:50.084Z,101974.25
2018-07-12T20:00:19.362Z,101982.66
2018-07-12T20:02:48.228Z,101989.37
2018-07-12T20:05:17.092Z,101987.95
2018-07-12T20:07:45.863Z,101983.35
2018-07-12T20:10:14.631Z,101986.54
2018-07-12T20:12:43.378Z,101992.31
2018-07-12T20:15:12.311Z,101989.77
2018-07-12T20:17:41.095Z,101994.80
2018-07-12T20:20:09.955Z,102001.60
2018-07-12T20:22:38.748Z,101995.17
2018-07-12T20:25:07.624Z,102000.07
2018-07-12T20:27:36.486Z,101999.84
2018-07-12T20:30:05.713Z,102007.08
2018-07-12T20:32:34.544Z,102006.69
2018-07-12T20:35:03.403Z,102002.27
2018-07-12T20:37:32.256Z,102012.04
2018-07-12T20:40:01.190Z,102007.56
2018-07-12T20:42:30.016Z,102009.41
2018-07-12T20:44:58.851Z,102007.62
2018-07-12T20:47:27.964Z,102017.80
2018-07-12T20:49:56.747Z,102012.69
2018-07-12T20:52:25.675Z,102016.67
2018-07-12T20:54:54.543Z,102015.58
2018-07-12T20:57:23.671Z,102021.50
2018-07-12T20:59:52.519Z,102015.30
2018-07-12T21:02:21.371Z,102019.72
2018-07-12T21:04:50.523Z,102023.20
2018-07-12T21:07:19.939Z,102020.87
2018-07-12T21:09:48.802Z,102028.62
2018-07-12T21:12:17.613Z,102025.22
2018-07-12T21:14:46.619Z,102029.30
2018-07-12T21:17:15.528Z,102030.11
2018-07-12T21:19:44.293Z,102034.63
2018-07-12T21:22:13.172Z,102034.67
2018-07-12T21:24:41.985Z,102036.98
2018-07-12T21:27:10.831Z,102038.47
2018-07-12T21:29:39.745Z,102042.32
2018-07-12T21:32:08.677Z,102043.30
2018-07-12T21:34:37.490Z,102044.75
2018-07-12T21:37:06.365Z,102038.73
2018-07-12T21:39:35.237Z,102042.00
2018-07-12T21:42:04.101Z,102041.36
2018-07-12T21:44:32.969Z,102048.23
2018-07-12T21:47:01.751Z,102046.02
2018-07-12T21:49:30.567Z,102053.03
2018-07-12T21:51:59.478Z,102052.43
2018-07-12T21:54:28.353Z,102055.20
2018-07-12T21:56:57.152Z,102057.47
2018-07-12T21:59:26.016Z,102060.01
2018-07-12T22:01:54.928Z,102060.95
2018-07-12T22:04:23.805Z,102061.36
2018-07-12T22:07:24.726Z,102062.86
2018-07-12T22:09:53.557Z,102057.68
2018-07-12T22:12:22.351Z,102062.69
2018-07-12T22:14:51.187Z,102059.92
2018-07-12T22:17:20.069Z,102067.53
2018-07-12T22:19:48.884Z,102055.65
2018-07-12T22:22:17.541Z,102049.96
2018-07-12T22:24:46.587Z,102050.56
2018-07-12T22:27:15.394Z,102053.20
2018-07-12T22:29:44.226Z,102049.12
2018-07-12T22:32:13.264Z,102061.13
2018-07-12T22:34:42.216Z,102057.05
2018-07-12T22:37:11.011Z,102053.23
2018-07-12T22:39:39.799Z,102056.30
2018-07-12T22:42:08.662Z,102057.34
2018-07-12T22:44:37.423Z,102056.30
2018-07-12T22:47:06.264Z,102050.47
2018-07-12T22:49:35.017Z,102051.77
2018-07-12T22:52:03.947Z,102052.42
2018-07-12T22:54:33.132Z,102052.55
2018-07-12T22:57:01.990Z,102048.38
2018-07-12T22:59:30.825Z,102049.62
2018-07-12T23:01:59.715Z,102051.73
2018-07-12T23:04:28.524Z,102049.84
2018-07-12T23:06:57.561Z,102050.45
2018-07-12T23:09:26.236Z,102048.33
2018-07-12T23:11:55.059Z,102039.73
2018-07-12T23:14:24.068Z,102039.08
2018-07-12T23:16:53.154Z,102044.36
2018-07-12T23:19:22.026Z,102038.58
2018-07-12T23:21:51.052Z,102046.24
2018-07-12T23:24:19.855Z,102044.52
2018-07-12T23:26:48.722Z,102050.90
2018-07-12T23:29:17.484Z,102051.33
2018-07-12T23:31:46.388Z,102043.48
2018-07-12T23:34:15.202Z,102050.63
2018-07-12T23:36:44.121Z,102054.58
2018-07-12T23:39:13.400Z,102047.14
2018-07-12T23:41:42.264Z,102049.62
2018-07-12T23:44:10.966Z,102049.91
2018-07-12T23:46:39.763Z,102044.95
2018-07-12T23:49:08.608Z,102042.92
2018-07-12T23:51:37.475Z,102044.22
2018-07-12T23:54:06.581Z,102047.14
2018-07-12T23:56:35.455Z,102045.80
2018-07-12T23:59:04.539Z,102044.64
